London Heathrow Airport

EGLL · 英格兰, 英国

罗盘
风向 的 风向 310° 倫敦希斯路機場 9L/27R
风: 1 kt, 1 beaufort

1 kt

1 kt
改变
0 ft 1.000 2.000 3.000 4.000 5.000
Cloud Cloud Cloud Cloud Cloud Cloud
BKN 3.400
METAR EGLL 090520Z AUTO 31001KT 8000 BKN034 01/00 Q1030 NOSIG

METAR 倫敦希斯路機場 - EGLL/LHR

倫敦希斯路機場是,英国中的大型机场。 该机场有3条跑道: 9L/27R, 9R/27L 和 9/27. 该领域的国际民航组织标志是EGLL 它的国际航空运输协会代码是LHR.

这份报告是针对2023年2月9日 05:20, 当地时间在倫敦希斯路機場进行的。

机场观察

风向为310°,速度为1 kt。

可见度为8 km。

有碎云在3.400 ft的高度。 破损或更高的上限为3.400 ft。

温度和风寒是1 °C。 海平面上的气压为1030 hPa (QNH)。

白天

今天,太阳从07:26升起,在17:05降落。 这适用于倫敦希斯路機場,世界夏令时可能有所不同。 当地时间与世界标准时间之间的时差为+0 小时。 当前,没有夏令时有效。

公司介绍

我们没有关于这个机场的公司信息。

体会

到Vliegles.nl去找飞行课程,跳伞和其他飞行体验。 浏览页面,了解倫敦希斯路機場附近所有可用的活动。 你也可以使用搜索功能来寻找你所在地附近的特定飞行课程、跳伞或其他飞行体验。

跑道

Id 标题 侧风 逆风 侧风 %
9L/27R 090°-270° 64 %
9R/27L 090°-270° 64 %
9/27 090°-270° 64 %

逆风成分最大的方向会被突出显示,并用于横风计算。 这并不一定意味着这个方向在使用。

乌云

3.400 ft BKN 碎云

温度 & 天气

温度 1 °C
露点 0 °C
相对湿度 93%
Kp-index 4 (0-9)

白天

日出
07:26 (1:35)
中午
12:16
日落
17:05

小工具

你想在你的网站上有一个关于倫敦希斯路機場的当前航空天气(METAR)的小部件吗?

显示HTML代码

我们和第三方通过cookies跟踪您在我们网站上的互联网行为。如果你继续,我们认为你同意我们的饼干政策